Flight Track Log - Related Links

Times and Time Zones

All times are in EDT time to prevent confusion due to time zone crossing. See the VIR19 flight status page for this flight to view local times or setup timezone preferences in your user account.

Time Position Orientation Groundspeed Altitude Reporting Facility
EDT Latitude Longitude Course Direction KTS MPH feet Rate Location/Type
Tue 07:11:29 AM 51.4648 -0.4426 90° East 161 185  Level FlightAware ADS-B
Tue 07:11:44 AM 51.4647 -0.4272 90° East 160 184 300 1,440 Climbing FlightAware ADS-B
Tue 07:11:54 AM 51.4648 -0.4787 108° East 165 190 600 2,000 Climbing FlightAware ADS-B
Tue 07:11:59 AM 51.4615 -0.4075 123° Southeast 170 196 800 1,800 Climbing FlightAware ADS-B
Tue 07:12:04 AM 51.4594 -0.4036 136° Southeast 176 203 900 1,333 Climbing FlightAware ADS-B
Tue 07:12:08 AM 51.4628 -0.4107 145° Southeast 178 205 1,000 1,200 Climbing FlightAware ADS-B (EGLF / FAB)
Tue 07:12:14 AM 51.4538 -0.3975 157° South 186 214 1,100 1,200 Climbing FlightAware ADS-B
Tue 07:12:18 AM 51.4491 -0.3951 172° South 190 219 1,200 1,800 Climbing FlightAware ADS-B (EGLC / LCY)
Tue 07:12:24 AM 51.4435 -0.3947 184° South 194 223 1,400 2,000 Climbing FlightAware ADS-B
Tue 07:12:27 AM 51.4407 -0.3953 190° South 197 227 1,500 1,500 Climbing FlightAware ADS-B
Tue 07:12:28 AM 51.4402 -0.3955 194° South 201 231 1,500  Level FlightAware ADS-B (EGLF / FAB)
Tue 07:12:34 AM 51.4337 -0.3992 205° Southwest 210 242 1,500 600 Level FlightAware ADS-B
Tue 07:12:38 AM 51.4311 -0.4015 210° Southwest 214 246 1,600 1,200 Climbing FlightAware ADS-B
Tue 07:12:39 AM 51.4306 -0.4023 213° Southwest 216 249 1,600 1,714 Level FlightAware ADS-B (EGLF / FAB)
Tue 07:12:52 AM 51.4193 -0.4161 220° Southwest 224 258 2,000 1,667 Climbing FlightAware ADS-B
Tue 07:12:57 AM 51.4157 -0.4205 220° Southwest 229 264 2,100 923 Climbing FlightAware ADS-B
Tue 07:13:05 AM 51.4087 -0.4308 221° Southwest 240 276 2,200 1,000 Climbing FlightAware ADS-B
Tue 07:13:09 AM 51.4053 -0.4354 221° Southwest 240 276 2,300 1,385 Climbing FlightAware ADS-B
Tue 07:13:18 AM 51.3979 -0.4465 224° Southwest 250 288 2,500 1,200 Climbing FlightAware ADS-B
Tue 07:13:24 AM 51.3934 -0.4550 231° Southwest 257 296 2,600 545 Climbing FlightAware ADS-B
Tue 07:13:29 AM 51.3900 -0.4632 239° Southwest 266 306 2,600  Level FlightAware ADS-B
Tue 07:13:30 AM 51.3884 -0.4686 247° West 272 313 2,600 2,000 Level FlightAware ADS-B
Tue 07:13:32 AM 51.3881 -0.4686 247° West 272 313 2,700 1,000 Climbing FlightAware ADS-B
Tue 07:13:36 AM 51.3867 -0.4762 252° West 276 318 2,700  Level FlightAware ADS-B
Tue 07:13:40 AM 51.3862 -0.4783 256° West 279 321 2,700 1,200 Level FlightAware ADS-B
Tue 07:13:41 AM 51.3854 -0.4863 262° West 281 323 2,800 1,500 Climbing FlightAware ADS-B (EGHI / SOU)
Tue 07:13:44 AM 51.3850 -0.4926 264° West 284 327 2,800 1,333 Level FlightAware ADS-B
Tue 07:13:50 AM 51.3850 -0.4905 269° West 288 331 3,000 2,000 Climbing FlightAware ADS-B (KALB)
Tue 07:13:59 AM 51.3849 -0.5249 273° West 295 339 3,300 1,846 Climbing FlightAware ADS-B
Tue 07:14:03 AM 51.3852 -0.5336 273° West 296 341 3,400 2,800 Climbing FlightAware ADS-B
Tue 07:14:14 AM 51.3861 -0.5552 275° West 292 336 4,000 3,200 Climbing FlightAware ADS-B
Tue 07:14:18 AM 51.3865 -0.5661 274° West 291 335 4,200 2,769 Climbing FlightAware ADS-B
Tue 07:14:27 AM 51.3872 -0.5831 274° West 289 333 4,600 3,000 Climbing FlightAware ADS-B
Tue 07:14:32 AM 51.3876 -0.5958 273° West 288 331 4,900 2,727 Climbing FlightAware ADS-B
Tue 07:14:38 AM 51.3879 -0.6066 273° West 290 334 5,100 2,500 Climbing FlightAware ADS-B
Tue 07:14:44 AM 51.3883 -0.6215 273° West 291 335 5,400 2,727 Climbing FlightAware ADS-B
Tue 07:14:49 AM 51.3885 -0.6280 273° West 290 334 5,600 2,667 Climbing FlightAware ADS-B (EGLF / FAB)
Tue 07:14:53 AM 51.3889 -0.6388 273° West 291 335 5,800 2,727 Climbing FlightAware ADS-B
Tue 07:15:00 AM 51.3894 -0.6561 273° West 294 338 6,100 2,182 Climbing FlightAware ADS-B (EGLC / LCY)
Tue 07:15:04 AM 51.3896 -0.6649 273° West 294 338 6,200 2,250 Climbing FlightAware ADS-B
Tue 07:15:08 AM 51.3898 -0.6713 272° West 294 338 6,400 2,571 Climbing FlightAware ADS-B
Tue 07:15:18 AM 51.3904 -0.6931 273° West 296 341 6,800 2,571 Climbing FlightAware ADS-B
Tue 07:15:22 AM 51.3907 -0.7041 273° West 296 341 7,000 2,571 Climbing FlightAware ADS-B
Tue 07:15:25 AM 51.3909 -0.7106 274° West 299 344 7,100 1,333 Climbing FlightAware ADS-B (EGLC / LCY)
Tue 07:15:31 AM 51.3913 -0.7195 273° West 300 345 7,200 2,000 Climbing FlightAware ADS-B
Tue 07:15:37 AM 51.3921 -0.7374 274° West 304 350 7,500 2,769 Climbing FlightAware ADS-B
Tue 07:15:44 AM 51.3927 -0.7509 274° West 305 351 7,800 2,400 Climbing FlightAware ADS-B
Tue 07:15:47 AM 51.3930 -0.7575 274° West 304 350 7,900 2,000 Climbing FlightAware ADS-B (EGLC / LCY)
Tue 07:15:53 AM 51.3935 -0.7732 273° West 303 349 8,100 2,500 Climbing FlightAware ADS-B
Tue 07:15:59 AM 51.3937 -0.7777 274° West 306 352 8,400 2,182 Climbing FlightAware ADS-B
Tue 07:16:04 AM 51.3943 -0.7959 273° West 307 353 8,500 2,000 Climbing FlightAware ADS-B (LERS / REU)
Tue 07:16:08 AM 51.3946 -0.8072 273° West 308 354 8,700 2,000 Climbing FlightAware ADS-B
Tue 07:16:16 AM 51.3952 -0.8234 274° West 312 359 8,900 1,800 Climbing FlightAware ADS-B (LERS / REU)
Tue 07:16:18 AM 51.3955 -0.8279 275° West 312 359 9,000 2,400 Climbing FlightAware ADS-B
Tue 07:16:21 AM 51.3961 -0.8347 278° West 312 359 9,100 3,000 Climbing FlightAware ADS-B
Tue 07:16:24 AM 51.3971 -0.8438 283° West 312 359 9,300 3,600 Climbing FlightAware ADS-B
Tue 07:16:26 AM 51.3965 -0.8393 287° West 312 359 9,400 1,200 Climbing FlightAware ADS-B
Tue 07:16:29 AM 51.3991 -0.8548 288° West 312 359 9,400 3,000 Level FlightAware ADS-B
Tue 07:16:30 AM 51.3996 -0.8572 287° West 312 359 9,600 2,250 Climbing FlightAware ADS-B (EGHS)
Tue 07:16:37 AM 51.4038 -0.8718 297° West 313 360 9,700 1,200 Climbing FlightAware ADS-B
Tue 07:16:40 AM 51.4059 -0.8779 299° West 314 361 9,800 2,200 Climbing FlightAware ADS-B
Tue 07:17:07 AM 51.4259 -0.9330 300° West 321 369 10,800 2,000 Climbing FlightAware ADS-B
Tue 07:17:10 AM 51.4270 -0.9351 300° West 323 372 10,800 600 Level FlightAware ADS-B
Tue 07:17:17 AM 51.4334 -0.9539 299° West 326 375 10,900 1,059 Climbing FlightAware ADS-B (LERS / REU)
Tue 07:17:27 AM 51.4405 -0.9730 301° West 339 390 11,100 900 Climbing FlightAware ADS-B (EGLF / FAB)
Tue 07:17:37 AM 51.4496 -0.9972 301° West 349 402 11,200 923 Climbing FlightAware ADS-B
Tue 07:17:53 AM 51.4626 -1.0310 300° West 358 412 11,500 1,043 Climbing FlightAware ADS-B (LERS / REU)
Tue 07:18:00 AM 51.4688 -1.0472 300° West 361 415 11,600 1,200 Climbing FlightAware ADS-B (EGDJ / UPV)
Tue 07:18:08 AM 51.4760 -1.0682 302° West 370 426 11,800 1,565 Climbing FlightAware ADS-B
Tue 07:18:23 AM 51.4898 -1.1036 301° West 378 435 12,200 1,800 Climbing FlightAware ADS-B (LERS / REU)
Tue 07:18:28 AM 51.4945 -1.1156 301° West 381 438 12,400 2,000 Climbing FlightAware ADS-B
Tue 07:18:29 AM 51.4954 -1.1182 301° West 381 438 12,400  Level FlightAware ADS-B (EGHS)
Tue 07:18:35 AM 51.5007 -1.1333 298° West 389 448 12,400 706 Level FlightAware ADS-B
Tue 07:18:46 AM 51.5094 -1.1620 294° West 398 458 12,600 1,000 Climbing FlightAware ADS-B
Tue 07:18:47 AM 51.5098 -1.1619 294° West 397 457 12,600 1,636 Level FlightAware ADS-B (EGHI / SOU)
Tue 07:19:08 AM 51.5244 -1.2234 292° West 405 466 13,200 1,929 Climbing FlightAware ADS-B (EGHI / SOU)
Tue 07:19:15 AM 51.5289 -1.2401 291° West 406 467 13,500 2,182 Climbing FlightAware ADS-B
Tue 07:19:19 AM 51.5310 -1.2514 290° West 408 470 13,600 1,667 Climbing FlightAware ADS-B (EGLF / FAB)
Tue 07:19:33 AM 51.5388 -1.2859 290° West 413 475 14,000 1,846 Climbing FlightAware ADS-B
Tue 07:19:45 AM 51.5489 -1.3291 291° West 417 480 14,400 1,765 Climbing FlightAware ADS-B
Tue 07:19:50 AM 51.5523 -1.3437 291° West 418 481 14,500 1,826 Climbing FlightAware ADS-B
Tue 07:20:08 AM 51.5648 -1.3961 290° West 420 483 15,100 1,846 Climbing FlightAware ADS-B (EGHI / SOU)
Tue 07:20:16 AM 51.5702 -1.4167 291° West 424 488 15,300 2,667 Climbing FlightAware ADS-B
Tue 07:20:17 AM 51.5710 -1.4195 292° West 425 489 15,500 2,308 Climbing FlightAware ADS-B
Tue 07:20:29 AM 51.5793 -1.4549 291° West 426 490 15,800 1,600 Climbing FlightAware ADS-B
Tue 07:20:47 AM 51.5915 -1.5087 289° West 430 495 16,300 1,800 Climbing FlightAware ADS-B
Tue 07:20:49 AM 51.5930 -1.5179 289° West 430 495 16,400 1,333 Climbing FlightAware ADS-B
Tue 07:20:56 AM 51.5980 -1.5390 290° West 432 497 16,500 1,800 Climbing FlightAware ADS-B
Tue 07:21:09 AM 51.6062 -1.5786 290° West 435 501 17,000 2,000 Climbing FlightAware ADS-B
Tue 07:21:17 AM 51.6114 -1.6032 289° West 436 502 17,200 2,000 Climbing FlightAware ADS-B
Tue 07:21:21 AM 51.6141 -1.6155 290° West 437 503 17,400 1,941 Climbing FlightAware ADS-B
Tue 07:21:51 AM 51.6342 -1.7046 290° West 442 509 18,300 1,600 Climbing FlightAware ADS-B
Tue 07:22:06 AM 51.6404 -1.7326 289° West 430 495 18,600 1,600 Climbing FlightAware ADS-B
Tue 07:22:21 AM 51.6553 -1.8013 290° West 449 517 19,100 2,000 Climbing FlightAware ADS-B
Tue 07:22:33 AM 51.6638 -1.8393 289° West 449 517 19,500 1,920 Climbing FlightAware ADS-B (LERS / REU)
Tue 07:22:46 AM 51.6726 -1.8771 290° West 454 522 19,900 1,579 Climbing FlightAware ADS-B (EGLF / FAB)
Tue 07:22:52 AM 51.6769 -1.8961 290° West 455 524 20,000  Climbing FlightAware ADS-B
Tue 07:22:56 AM 51.6753 -1.8897 289° West 430 495 19,900 1,286 Descending FlightAware ADS-B
Tue 07:23:06 AM 51.6872 -1.9442 289° West 451 519 20,300 2,100 Climbing FlightAware ADS-B
Tue 07:23:16 AM 51.6947 -1.9763 290° West 459 528 20,600 2,000 Climbing FlightAware ADS-B
Tue 07:23:21 AM 51.6981 -1.9926 290° West 461 531 20,800 1,714 Climbing FlightAware ADS-B
Tue 07:23:23 AM 51.6991 -1.9959 289° West 461 531 20,800 1,500 Level FlightAware ADS-B
Tue 07:23:49 AM 51.7183 -2.0839 289° West 469 540 21,500 1,548 Climbing FlightAware ADS-B
Tue 07:23:54 AM 51.7215 -2.1004 289° West 469 540 21,600 1,615 Climbing FlightAware ADS-B
Tue 07:24:15 AM 51.7368 -2.1697 290° West 473 544 22,200 1,600 Climbing FlightAware ADS-B
Tue 07:24:24 AM 51.7434 -2.1999 289° West 476 548 22,400 750 Climbing FlightAware ADS-B
Tue 07:24:31 AM 51.7440 -2.2030 289° West 430 495 22,400 1,714 Level FlightAware ADS-B
Tue 07:24:38 AM 51.7533 -2.2434 289° West 479 551 22,800 2,211 Climbing FlightAware ADS-B (EGLC / LCY)
Tue 07:24:50 AM 51.7626 -2.2871 288° West 478 550 23,100 1,500 Climbing FlightAware ADS-B (EGDJ / UPV)
Tue 07:24:54 AM 51.7651 -2.3007 288° West 479 551 23,200 1,200 Climbing FlightAware ADS-B
Tue 07:24:55 AM 51.7663 -2.3040 289° West 482 555 23,200 1,680 Level FlightAware ADS-B
Tue 07:25:19 AM 51.7834 -2.3824 290° West 484 557 23,900 1,600 Climbing FlightAware ADS-B
Tue 07:25:25 AM 51.7884 -2.4064 289° West 487 560 24,000 1,556 Climbing FlightAware ADS-B
Tue 07:25:46 AM 51.8036 -2.4790 288° West 489 563 24,600 1,750 Climbing FlightAware ADS-B
Tue 07:25:49 AM 51.8058 -2.4892 287° West 489 563 24,700 1,600 Climbing FlightAware ADS-B (EGDJ / UPV)
Tue 07:26:01 AM 51.8137 -2.5312 286° West 491 565 25,000 1,667 Climbing FlightAware ADS-B
Tue 07:26:07 AM 51.8176 -2.5526 286° West 494 568 25,200 1,714 Climbing FlightAware ADS-B
Tue 07:26:15 AM 51.8223 -2.5809 285° West 495 570 25,400 1,200 Climbing FlightAware ADS-B
Tue 07:26:17 AM 51.8234 -2.5845 283° West 494 568 25,400 1,000 Level FlightAware ADS-B (EGDJ / UPV)
Tue 07:26:21 AM 51.8254 -2.5989 284° West 496 571 25,500 1,714 Climbing FlightAware ADS-B (LERS / REU)
Tue 07:26:38 AM 51.8345 -2.6640 282° West 499 574 26,000 1,714 Climbing FlightAware ADS-B
Tue 07:26:49 AM 51.8399 -2.7041 283° West 501 577 26,300 1,364 Climbing FlightAware ADS-B
Tue 07:27:00 AM 51.8452 -2.7409 283° West 501 577 26,500 1,125 Climbing FlightAware ADS-B
Tue 07:27:05 AM 51.8476 -2.7592 281° West 501 577 26,600 1,333 Climbing FlightAware ADS-B
Tue 07:27:09 AM 51.8488 -2.7702 282° West 504 580 26,700 1,846 Climbing FlightAware ADS-B (EGCW)
Tue 07:27:18 AM 51.8540 -2.8068 281° West 503 579 27,000 1,600 Climbing FlightAware ADS-B (EGHH / BOH)
Tue 07:27:24 AM 51.8571 -2.8325 281° West 504 580 27,100 1,429 Climbing FlightAware ADS-B
Tue 07:27:39 AM 51.8646 -2.8882 281° West 506 582 27,500 1,200 Climbing FlightAware ADS-B
Tue 07:27:44 AM 51.8642 -2.8844 289° West 430 495 27,500 1,333 Level FlightAware ADS-B
Tue 07:27:48 AM 51.8690 -2.9178 281° West 507 583 27,700 2,667 Climbing FlightAware ADS-B (EGHH / BOH)
Tue 07:27:53 AM 51.8718 -2.9398 283° West 509 586 27,900 1,800 Climbing FlightAware ADS-B
Tue 07:27:58 AM 51.8741 -2.9585 282° West 509 586 28,000 1,263 Climbing FlightAware ADS-B
Tue 07:28:12 AM 51.8805 -3.0072 282° West 510 587 28,300 1,714 Climbing FlightAware ADS-B
Tue 07:28:26 AM 51.8876 -3.0592 281° West 506 582 28,800 2,057 Climbing FlightAware ADS-B (EGDJ / UPV)
Tue 07:28:47 AM 51.8979 -3.1407 282° West 510 587 29,500 1,920 Climbing FlightAware ADS-B
Tue 07:28:51 AM 51.8997 -3.1557 281° West 505 581 29,600  Climbing FlightAware ADS-B
Tue 07:28:55 AM 51.9012 -3.1667 281° West 505 581 29,500 1,412 Descending FlightAware ADS-B (EGNR / CEG)
Tue 07:29:08 AM 51.9067 -3.2075 282° West 507 583 30,000 1,909 Climbing FlightAware ADS-B
Tue 07:29:17 AM 51.9121 -3.2519 281° West 506 582 30,200 1,385 Climbing FlightAware ADS-B (EGDJ / UPV)
Tue 07:29:21 AM 51.9143 -3.2670 281° West 507 583 30,300 1,000 Climbing FlightAware ADS-B
Tue 07:29:23 AM 51.9151 -3.2745 282° West 508 585 30,300 857 Level FlightAware ADS-B
Tue 07:29:35 AM 51.9206 -3.3153 281° West 510 587 30,500 1,263 Climbing FlightAware ADS-B (LERS / REU)
Tue 07:29:42 AM 51.9241 -3.3416 282° West 512 589 30,700 1,440 Climbing FlightAware ADS-B
Tue 07:30:00 AM 51.9329 -3.4129 281° West 513 590 31,100 1,304 Climbing FlightAware ADS-B (LERS / REU)
Tue 07:30:05 AM 51.9351 -3.4246 282° West 514 592 31,200 750 Climbing FlightAware ADS-B (EGDM)
Tue 07:30:08 AM 51.9368 -3.4434 281° West 513 590 31,200 1,200 Level FlightAware ADS-B (LERS / REU)
Tue 07:30:25 AM 51.9451 -3.5073 281° West 515 593 31,600 1,071 Climbing FlightAware ADS-B
Tue 07:30:36 AM 51.9475 -3.5262 282° West 507 583 31,700 1,059 Climbing FlightAware ADS-B
Tue 07:30:42 AM 51.9531 -3.5680 281° West 515 593 31,900 1,200 Climbing FlightAware ADS-B (EGHH / BOH)
Tue 07:30:56 AM 51.9567 -3.5984 282° West 507 583 32,100 1,091 Climbing FlightAware ADS-B
Tue 07:31:26 AM 51.9711 -3.7120 282° West 507 583 32,700 1,475 Climbing FlightAware ADS-B
Tue 07:31:57 AM 51.9799 -3.7804 281° West 518 596 33,600 951 Climbing FlightAware ADS-B (EGCW)
Tue 07:32:48 AM 52.0101 -4.0241 282° West 507 583 34,000 293 Climbing FlightAware ADS-B
Tue 07:33:19 AM 52.0273 -4.1648 281° West 518 596 34,000  Level FlightAware ADS-B
Tue 07:33:28 AM 52.0319 -4.2028 282° West 517 595 34,000  Level FlightAware ADS-B
Tue 07:33:37 AM 52.0345 -4.2257 281° West 517 595 34,000  Level FlightAware ADS-B
Tue 07:34:07 AM 52.0464 -4.3240 281° West 516 594 34,000  Level FlightAware ADS-B
Tue 07:34:39 AM 52.0641 -4.4718 281° West 513 590 34,000  Level FlightAware ADS-B (EGCW)
Tue 07:35:10 AM 52.0781 -4.5887 281° West 512 589 34,000  Level FlightAware ADS-B (LERS / REU)
Tue 07:35:41 AM 52.0913 -4.7019 281° West 512 589 34,000  Level FlightAware ADS-B (EGCW)
Tue 07:36:11 AM 52.1044 -4.8153 281° West 513 590 34,000  Level FlightAware ADS-B (EGCW)
Tue 07:36:39 AM 52.1173 -4.9249 280° West 511 588 34,000  Level FlightAware ADS-B (LERS / REU)
Tue 07:36:51 AM 52.1223 -4.9704 280° West 512 589 34,000  Level FlightAware ADS-B (LERS / REU)
Tue 07:36:59 AM 52.1259 -5.0007 281° West 513 590 34,000  Level FlightAware ADS-B
Tue 07:37:32 AM 52.1407 -5.1256 283° West 513 590 34,000  Level FlightAware ADS-B (EGCW)
Tue 07:37:48 AM 52.1498 -5.1855 284° West 513 590 34,000  Level FlightAware ADS-B
Tue 07:38:23 AM 52.1730 -5.3151 287° West 512 589 34,000  Level FlightAware ADS-B
Tue 07:38:52 AM 52.1944 -5.4127 299° West 509 586 34,000  Level FlightAware ADS-B (EGCW)
Tue 07:39:04 AM 52.2109 -5.4551 304° West 505 581 34,000  Level FlightAware ADS-B (EPBY / BZG)
Tue 07:39:12 AM 52.2223 -5.4835 306° West 504 580 34,000  Level FlightAware ADS-B
Tue 07:39:17 AM 52.2290 -5.4990 306° West 504 580 34,000  Level FlightAware ADS-B
Tue 07:39:42 AM 52.2610 -5.5734 305° West 504 580 34,000  Level FlightAware ADS-B
Tue 07:40:13 AM 52.2969 -5.6529 307° West 501 577 34,000  Level FlightAware ADS-B
Tue 07:40:45 AM 52.3503 -5.7659 308° West 500 575 34,000  Level FlightAware ADS-B (EPBY / BZG)
Tue 07:40:56 AM 52.3665 -5.7983 309° West 499 574 34,000  Level FlightAware ADS-B
Tue 07:41:35 AM 52.4203 -5.9110 308° West 498 573 34,000  Level FlightAware ADS-B (EPBY / BZG)
Tue 07:42:08 AM 52.4683 -6.0124 308° West 499 574 34,000  Level FlightAware ADS-B (EGCW)
Tue 07:42:20 AM 52.4850 -6.0484 308° West 498 573 34,000  Level FlightAware ADS-B
Tue 07:42:25 AM 52.4923 -6.0634 307° West 499 574 34,000  Level FlightAware ADS-B (EGCW)
Tue 07:42:39 AM 52.4991 -6.0785 307° West 498 573 34,000  Level FlightAware ADS-B (EPBY / BZG)
Tue 07:42:56 AM 52.5355 -6.1564 308° West 498 573 34,000  Level FlightAware ADS-B
Tue 07:43:06 AM 52.5488 -6.1866 308° West 498 573 34,000  Level FlightAware ADS-B
Tue 07:43:27 AM 52.5782 -6.2498 308° West 497 572 34,000  Level FlightAware ADS-B
Tue 07:43:59 AM 52.6213 -6.3430 307° West 498 573 34,000  Level FlightAware ADS-B
Tue 07:44:03 AM 52.6286 -6.3583 308° West 497 572 34,000  Level FlightAware ADS-B
Tue 07:44:18 AM 52.6492 -6.4033 308° West 497 572 34,000  Level FlightAware ADS-B
Tue 07:44:50 AM 52.6917 -6.4969 307° West 498 573 34,000  Level FlightAware ADS-B
Tue 07:44:57 AM 52.7034 -6.5210 307° West 497 572 34,000  Level FlightAware ADS-B
Tue 07:45:29 AM 52.7471 -6.6178 307° West 497 572 34,000  Level FlightAware ADS-B
Tue 07:46:06 AM 52.7953 -6.7207 307° West 498 573 34,000  Level FlightAware ADS-B (EPBY / BZG)
Tue 07:46:36 AM 52.8371 -6.8150 307° West 497 572 34,000  Level FlightAware ADS-B
Tue 07:47:11 AM 52.8813 -6.9124 307° West 498 573 34,000  Level FlightAware ADS-B
Tue 07:47:36 AM 52.9228 -7.0038 306° West 493 567 34,000  Level FlightAware ADS-B (KABQ)
Tue 07:48:16 AM 52.9764 -7.1232 307° West 499 574 34,000  Level FlightAware ADS-B
Tue 07:48:47 AM 53.0188 -7.2182 307° West 499 574 34,000  Level FlightAware ADS-B
Tue 07:49:27 AM 53.0735 -7.3414 307° West 500 575 34,000  Level FlightAware ADS-B (KABQ)
Tue 07:49:47 AM 53.0909 -7.3815 306° West 500 575 34,000  Level FlightAware ADS-B (EPBY / BZG)
Tue 07:50:24 AM 53.0909 -7.3815 306° West 501 577 34,000  Level FlightAware ADS-B (EPBY / BZG)
Tue 07:51:10 AM 53.2157 -7.6649 306° West 502 578 34,000  Level FlightAware UK
Tue 07:51:20 AM 53.2279 -7.6920 306° West 501 577 34,000  Level FlightAware ADS-B (KABQ)
Tue 07:51:38 AM 53.2539 -7.7512 305° West 496 571 34,000  Level FlightAware ADS-B
Tue 07:52:09 AM 53.2960 -7.8481 306° West 502 578 34,000  Level FlightAware ADS-B (KABQ)
Tue 07:52:40 AM 53.3375 -7.9418 306° West 501 577 34,000  Level FlightAware ADS-B (KABQ)
Tue 07:53:10 AM 53.3791 -8.0391 306° West 501 577 34,000  Level FlightAware ADS-B
Tue 07:53:41 AM 53.4206 -8.1363 306° West 502 578 34,000  Level FlightAware ADS-B
Tue 07:54:12 AM 53.4628 -8.2342 306° West 502 578 34,000  Level FlightAware ADS-B
Tue 07:54:43 AM 53.5048 -8.3322 306° West 502 578 34,000  Level FlightAware ADS-B
Tue 07:55:14 AM 53.5459 -8.4269 306° West 502 578 34,000  Level FlightAware ADS-B
Tue 07:55:47 AM 53.5896 -8.5315 305° West 501 577 34,000  Level FlightAware ADS-B
Tue 07:56:17 AM 53.6307 -8.6298 305° West 501 577 34,000  Level FlightAware ADS-B
Tue 07:56:50 AM 53.6708 -8.7248 305° West 500 575 34,000  Level FlightAware ADS-B
Tue 07:57:20 AM 53.7149 -8.8296 305° West 499 574 34,000  Level FlightAware ADS-B
Tue 07:57:34 AM 53.7335 -8.8743 305° West 499 574 34,000  Level FlightAware ADS-B
Tue 07:58:07 AM 53.7695 -8.9600 305° West 498 573 34,000  Level FlightAware ADS-B (KABQ)
Tue 07:58:44 AM 53.8204 -9.0838 305° West 497 572 34,000  Level FlightAware ADS-B (KABQ)
Tue 07:59:14 AM 53.8647 -9.1887 305° West 496 571 34,000  Level FlightAware ADS-B (KABQ)
Tue 07:59:49 AM 53.9119 -9.3035 305° West 497 572 34,000  Level FlightAware ADS-B
Tue 08:00:23 AM 53.9562 -9.4122 305° West 497 572 34,000 Level FlightAware ADS-B (KABQ)
Tue 08:02:00 AM 54.0823 -9.6703 310° West  Level Estimated
Tue 08:03:00 AM 54.1601 -9.8307 310° West  Level Estimated
Tue 08:04:00 AM 54.2376 -9.9917 310° West  Level Estimated
Tue 08:05:00 AM 54.3149 -10.1533 309° West  Level Estimated
Tue 08:06:00 AM 54.3920 -10.3155 309° West  Level Estimated
Tue 08:07:00 AM 54.4689 -10.4784 309° West  Level Estimated
Tue 08:08:00 AM 54.5456 -10.6418 309° West  Level Estimated
Tue 08:09:00 AM 54.6220 -10.8059 309° West  Level Estimated
Tue 08:10:00 AM 54.6982 -10.9706 309° West  Level Estimated
Tue 08:11:00 AM 54.7742 -11.1359 309° West  Level Estimated
Tue 08:12:00 AM 54.8500 -11.3018 308° West  Level Estimated
Tue 08:13:00 AM 54.9255 -11.4684 308° West  Level Estimated
Tue 08:14:00 AM 55.0009 -11.6355 308° West  Level Estimated
Tue 08:15:00 AM 55.0760 -11.8033 308° West  Level Estimated
Tue 08:16:00 AM 55.1508 -11.9718 308° West  Level Estimated
Tue 08:17:00 AM 55.2254 -12.1408 308° West  Level Estimated
Tue 08:18:00 AM 55.2998 -12.3105 308° West  Level Estimated
Tue 08:19:00 AM 55.3740 -12.4808 308° West  Level Estimated
Tue 08:20:00 AM 55.4479 -12.6518 307° West  Level Estimated
Tue 08:21:00 AM 55.5215 -12.8234 307° West  Level Estimated
Tue 08:22:00 AM 55.5950 -12.9957 307° West  Level Estimated
Tue 08:23:00 AM 55.6682 -13.1686 307° West  Level Estimated
Tue 08:24:00 AM 55.7411 -13.3421 307° West  Level Estimated
Tue 08:25:00 AM 55.8138 -13.5163 307° West  Level Estimated
Tue 08:26:00 AM 55.8863 -13.6912 307° West  Level Estimated
Tue 08:27:00 AM 55.9585 -13.8667 306° West  Level Estimated
Tue 08:28:00 AM 56.0304 -14.0428 306° West  Level Estimated
Tue 08:29:00 AM 56.1021 -14.2196 306° West  Level Estimated
Tue 08:30:00 AM 56.1736 -14.3971 306° West  Level Estimated
Tue 08:31:00 AM 56.2448 -14.5752 306° West  Level Estimated
Tue 08:32:00 AM 56.3157 -14.7540 306° West  Level Estimated
Tue 08:33:00 AM 56.3864 -14.9335 305° West  Level Estimated
Tue 08:34:00 AM 56.4568 -15.1136 305° West  Level Estimated
Tue 08:35:00 AM 56.5270 -15.2944 305° West  Level Estimated
Tue 08:36:00 AM 56.5969 -15.4758 305° West  Level Estimated
Tue 08:37:00 AM 56.6665 -15.6580 305° West  Level Estimated
Tue 08:38:00 AM 56.7358 -15.8408 305° West  Level Estimated
Tue 08:39:00 AM 56.8049 -16.0243 305° West  Level Estimated
Tue 08:40:00 AM 56.8737 -16.2084 304° West  Level Estimated
Tue 08:41:00 AM 56.9423 -16.3932 304° West  Level Estimated
Tue 08:42:00 AM 57.0106 -16.5788 304° West  Level Estimated
Tue 08:43:00 AM 57.0786 -16.7649 304° West  Level Estimated
Tue 08:44:00 AM 57.1463 -16.9518 304° West  Level Estimated
Tue 08:45:00 AM 57.2137 -17.1394 304° West  Level Estimated
Tue 08:46:00 AM 57.2809 -17.3276 303° West  Level Estimated
Tue 08:47:00 AM 57.3478 -17.5166 303° West  Level Estimated
Tue 08:48:00 AM 57.4144 -17.7062 303° West  Level Estimated
Tue 08:49:00 AM 57.4807 -17.8965 303° West  Level Estimated
Tue 08:50:00 AM 57.5467 -18.0875 303° West  Level Estimated
Tue 08:51:00 AM 57.6125 -18.2792 303° West  Level Estimated
Tue 08:52:00 AM 57.6779 -18.4716 303° West  Level Estimated
Tue 08:53:00 AM 57.7431 -18.6646 302° West  Level Estimated
Tue 08:54:00 AM 57.8079 -18.8584 302° West  Level Estimated
Tue 08:55:00 AM 57.8725 -19.0529 302° West  Level Estimated
Tue 08:56:00 AM 57.9367 -19.2481 302° West  Level Estimated
Tue 08:57:00 AM 58.0007 -19.4439 302° West  Level Estimated
Tue 08:58:00 AM 58.0644 -19.6405 302° West  Level Estimated
Tue 08:59:00 AM 58.1277 -19.8378 301° West  Level Estimated
Tue 09:00:00 AM 58.1908 -20.0357 301° West  Level Estimated
Tue 09:01:00 AM 58.2535 -20.2344 301° West  Level Estimated
Tue 09:02:00 AM 58.3160 -20.4338 301° West  Level Estimated
Tue 09:03:00 AM 58.3781 -20.6338 301° West  Level Estimated
Tue 09:04:00 AM 58.4399 -20.8346 301° West  Level Estimated
Tue 09:05:00 AM 58.5014 -21.0361 300° West  Level Estimated
Tue 09:06:00 AM 58.5626 -21.2383 300° West  Level Estimated
Tue 09:07:00 AM 58.6234 -21.4412 300° West  Level Estimated
Tue 09:08:00 AM 58.6840 -21.6448 300° West  Level Estimated
Tue 09:09:00 AM 58.7442 -21.8491 300° West  Level Estimated
Tue 09:10:00 AM 58.8041 -22.0541 299° West  Level Estimated
Tue 09:11:00 AM 58.8636 -22.2598 299° West  Level Estimated
Tue 09:12:00 AM 58.9229 -22.4663 299° West  Level Estimated
Tue 09:13:00 AM 58.9818 -22.6734 299° West  Level Estimated
Tue 09:14:00 AM 59.0404 -22.8813 299° West  Level Estimated
Tue 09:15:00 AM 59.0986 -23.0898 299° West  Level Estimated
Tue 09:16:00 AM 59.1565 -23.2991 298° West  Level Estimated
Tue 09:17:00 AM 59.2141 -23.5090 298° West  Level Estimated
Tue 09:18:00 AM 59.2713 -23.7197 298° West  Level Estimated
Tue 09:19:00 AM 59.3282 -23.9311 298° West  Level Estimated
Tue 09:20:00 AM 59.3848 -24.1432 298° West  Level Estimated
Tue 09:21:00 AM 59.4409 -24.3560 298° West  Level Estimated
Tue 09:22:00 AM 59.4968 -24.5695 297° West  Level Estimated
Tue 09:23:00 AM 59.5523 -24.7837 297° West  Level Estimated
Tue 09:24:00 AM 59.6075 -24.9986 297° West  Level Estimated
Tue 09:25:00 AM 59.6623 -25.2142 297° West  Level Estimated
Tue 09:26:00 AM 59.7167 -25.4305 297° West  Level Estimated
Tue 09:27:00 AM 59.7708 -25.6476 296° West  Level Estimated
Tue 09:28:00 AM 59.8245 -25.8653 296° West  Level Estimated
Tue 09:29:00 AM 59.8779 -26.0837 296° West  Level Estimated
Tue 09:30:00 AM 59.9309 -26.3028 296° West  Level Estimated
Tue 09:31:00 AM 59.9835 -26.5227 296° West  Level Estimated
Tue 09:32:00 AM 60.0358 -26.7432 295° West  Level Estimated
Tue 09:33:00 AM 60.0877 -26.9644 295° West  Level Estimated
Tue 09:34:00 AM 60.1393 -27.1863 295° West  Level Estimated
Tue 09:35:00 AM 60.1904 -27.4089 295° West  Level Estimated
Tue 09:36:00 AM 60.2412 -27.6322 295° West  Level Estimated
Tue 09:37:00 AM 60.2916 -27.8562 295° West  Level Estimated
Tue 09:38:00 AM 60.3417 -28.0809 294° West  Level Estimated
Tue 09:39:00 AM 60.3913 -28.3063 294° West  Level Estimated
Tue 09:40:00 AM 60.4406 -28.5323 294° West  Level Estimated
Tue 09:41:00 AM 60.4895 -28.7591 294° West  Level Estimated
Tue 09:42:00 AM 60.5380 -28.9865 294° West  Level Estimated
Tue 09:43:00 AM 60.5861 -29.2146 293° West  Level Estimated
Tue 09:44:00 AM 60.6338 -29.4434 293° West  Level Estimated
Tue 09:45:00 AM 60.6812 -29.6728 293° West  Level Estimated
Tue 09:46:00 AM 60.7281 -29.9030 293° West  Level Estimated
Tue 09:47:00 AM 60.7747 -30.1338 293° West  Level Estimated
Tue 09:48:00 AM 60.8208 -30.3652 292° West  Level Estimated
Tue 09:49:00 AM 60.8666 -30.5973 292° West  Level Estimated
Tue 09:50:00 AM 60.9119 -30.8301 292° West  Level Estimated
Tue 09:51:00 AM 60.9568 -31.0636 292° West  Level Estimated
Tue 09:52:00 AM 61.0014 -31.2977 292° West  Level Estimated
Tue 09:53:00 AM 61.0455 -31.5325 291° West  Level Estimated
Tue 09:54:00 AM 61.0892 -31.7679 291° West  Level Estimated
Tue 09:55:00 AM 61.1326 -32.0040 291° West  Level Estimated
Tue 09:56:00 AM 61.1755 -32.2407 291° West  Level Estimated
Tue 09:57:00 AM 61.2180 -32.4780 290° West  Level Estimated
Tue 09:58:00 AM 61.2600 -32.7160 290° West  Level Estimated
Tue 09:59:00 AM 61.3017 -32.9547 290° West  Level Estimated
Tue 10:00:00 AM 61.3429 -33.1939 290° West  Level Estimated
Tue 10:01:00 AM 61.3837 -33.4338 290° West  Level Estimated
Tue 10:02:00 AM 61.4241 -33.6743 289° West  Level Estimated
Tue 10:03:00 AM 61.4641 -33.9155 289° West  Level Estimated
Tue 10:04:00 AM 61.5036 -34.1572 289° West  Level Estimated
Tue 10:05:00 AM 61.5427 -34.3996 289° West  Level Estimated
Tue 10:06:00 AM 61.5814 -34.6425 289° West  Level Estimated
Tue 10:07:00 AM 61.6197 -34.8861 288° West  Level Estimated
Tue 10:08:00 AM 61.6575 -35.1303 288° West  Level Estimated
Tue 10:09:00 AM 61.6948 -35.3750 288° West  Level Estimated
Tue 10:10:00 AM 61.7318 -35.6204 288° West  Level Estimated
Tue 10:11:00 AM 61.7683 -35.8663 288° West  Level Estimated
Tue 10:12:00 AM 61.8043 -36.1129 287° West  Level Estimated
Tue 10:13:00 AM 61.8400 -36.3600 287° West  Level Estimated
Tue 10:14:00 AM 61.8751 -36.6076 287° West  Level Estimated
Tue 10:15:00 AM 61.9099 -36.8559 287° West  Level Estimated
Tue 10:16:00 AM 61.9441 -37.1046 286° West  Level Estimated
Tue 10:17:00 AM 61.9780 -37.3540 286° West  Level Estimated
Tue 10:18:00 AM 62.0113 -37.6039 286° West  Level Estimated
Tue 10:19:00 AM 62.0443 -37.8544 286° West  Level Estimated
Tue 10:20:00 AM 62.0767 -38.1053 286° West  Level Estimated
Tue 10:21:00 AM 62.1087 -38.3568 285° West  Level Estimated
Tue 10:22:00 AM 62.1403 -38.6089 285° West  Level Estimated
Tue 10:23:00 AM 62.1714 -38.8615 285° West  Level Estimated
Tue 10:24:00 AM 62.2020 -39.1146 285° West  Level Estimated
Tue 10:25:00 AM 62.2322 -39.3681 284° West  Level Estimated
Tue 10:26:00 AM 62.2619 -39.6222 284° West  Level Estimated
Tue 10:27:00 AM 62.2912 -39.8768 284° West  Level Estimated
Tue 10:28:00 AM 62.3199 -40.1319 284° West  Level Estimated
Tue 10:29:00 AM 62.3483 -40.3875 284° West  Level Estimated
Tue 10:30:00 AM 62.3761 -40.6436 283° West  Level Estimated
Tue 10:31:00 AM 62.4035 -40.9001 283° West  Level Estimated
Tue 10:32:00 AM 62.4304 -41.1571 283° West  Level Estimated
Tue 10:33:00 AM 62.4568 -41.4145 283° West  Level Estimated
Tue 10:34:00 AM 62.4827 -41.6724 282° West  Level Estimated
Tue 10:35:00 AM 62.5082 -41.9308 282° West  Level Estimated
Tue 10:36:00 AM 62.5332 -42.1895 282° West  Level Estimated
Tue 10:37:00 AM 62.5577 -42.4487 282° West  Level Estimated
Tue 10:38:00 AM 62.5818 -42.7084 281° West  Level Estimated
Tue 10:39:00 AM 62.6053 -42.9684 281° West  Level Estimated
Tue 10:40:00 AM 62.6284 -43.2289 281° West  Level Estimated
Tue 10:41:00 AM 62.6510 -43.4897 281° West  Level Estimated
Tue 10:42:00 AM 62.6731 -43.7510 281° West  Level Estimated
Tue 10:43:00 AM 62.6947 -44.0126 280° West  Level Estimated
Tue 10:44:00 AM 62.7158 -44.2747 280° West  Level Estimated
Tue 10:45:00 AM 62.7365 -44.5370 280° West  Level Estimated
Tue 10:46:00 AM 62.7566 -44.7998 280° West  Level Estimated
Tue 10:47:00 AM 62.7763 -45.0629 279° West  Level Estimated
Tue 10:48:00 AM 62.7954 -45.3264 279° West  Level Estimated
Tue 10:49:00 AM 62.8141 -45.5901 279° West  Level Estimated
Tue 10:50:00 AM 62.8323 -45.8543 279° West  Level Estimated
Tue 10:51:00 AM 62.8500 -46.1187 278° West  Level Estimated
Tue 10:52:00 AM 62.8671 -46.3835 278° West  Level Estimated
Tue 10:53:00 AM 62.8838 -46.6485 278° West  Level Estimated
Tue 10:54:00 AM 62.9000 -46.9139 278° West  Level Estimated
Tue 10:55:00 AM 62.9157 -47.1796 278° West  Level Estimated
Tue 10:56:00 AM 62.9309 -47.4455 277° West  Level Estimated
Tue 10:57:00 AM 62.9456 -47.7117 277° West  Level Estimated
Tue 10:58:00 AM 62.9598 -47.9781 277° West  Level Estimated
Tue 10:59:00 AM 62.9735 -48.2449 277° West  Level Estimated
Tue 11:00:00 AM 62.9867 -48.5118 276° West  Level Estimated
Tue 11:01:00 AM 62.9994 -48.7790 276° West  Level Estimated
Tue 11:02:00 AM 63.0115 -49.0465 276° West  Level Estimated
Tue 11:03:00 AM 63.0232 -49.3141 276° West  Level Estimated
Tue 11:04:00 AM 63.0344 -49.5820 275° West  Level Estimated
Tue 11:05:00 AM 63.0450 -49.8500 275° West  Level Estimated
Tue 11:06:00 AM 63.0552 -50.1183 275° West  Level Estimated
Tue 11:07:00 AM 63.0648 -50.3867 275° West  Level Estimated
Tue 11:08:00 AM 63.0740 -50.6553 274° West  Level Estimated
Tue 11:09:00 AM 63.0826 -50.9241 274° West  Level Estimated
Tue 11:10:00 AM 63.0907 -51.1930 274° West  Level Estimated
Tue 11:11:00 AM 63.0983 -51.4621 274° West  Level Estimated
Tue 11:12:00 AM 63.1054 -51.7313 273° West  Level Estimated
Tue 11:13:00 AM 63.1120 -52.0006 273° West  Level Estimated
Tue 11:14:00 AM 63.1181 -52.2701 273° West  Level Estimated
Tue 11:15:00 AM 63.1236 -52.5396 273° West  Level Estimated
Tue 11:16:00 AM 63.1287 -52.8093 272° West  Level Estimated
Tue 11:17:00 AM 63.1332 -53.0790 272° West  Level Estimated
Tue 11:18:00 AM 63.1373 -53.3488 272° West  Level Estimated
Tue 11:19:00 AM 63.1408 -53.6187 272° West  Level Estimated
Tue 11:20:00 AM 63.1438 -53.8887 272° West  Level Estimated
Tue 11:21:00 AM 63.1463 -54.1587 271° West  Level Estimated
Tue 11:22:00 AM 63.1483 -54.4287 271° West  Level Estimated
Tue 11:23:00 AM 63.1497 -54.6988 271° West  Level Estimated
Tue 11:24:00 AM 63.1507 -54.9689 271° West  Level Estimated
Tue 11:25:00 AM 63.1511 -55.2391 270° West  Level Estimated
Tue 11:26:00 AM 63.1511 -55.5092 270° West  Level Estimated
Tue 11:27:00 AM 63.1504 -55.8054 270° West  Level Estimated
Tue 11:28:00 AM 63.1491 -56.1017 270° West  Level Estimated
Tue 11:29:00 AM 63.1472 -56.3979 269° West  Level Estimated
Tue 11:30:00 AM 63.1447 -56.6941 269° West  Level Estimated
Tue 11:31:00 AM 63.1415 -56.9902 269° West  Level Estimated
Tue 11:32:00 AM 63.1378 -57.2845 269° West  Level Estimated
Tue 11:33:00 AM 63.1335 -57.5787 268° West  Level Estimated
Tue 11:34:00 AM 63.1285 -57.8728 268° West  Level Estimated
Tue 11:35:00 AM 63.1230 -58.1669 268° West  Level Estimated
Tue 11:36:00 AM 63.1168 -58.4608 267° West  Level Estimated
Tue 11:37:00 AM 63.1100 -58.7545 267° West  Level Estimated
Tue 11:38:00 AM 63.1026 -59.0482 267° West  Level Estimated
Tue 11:39:00 AM 63.0947 -59.3416 267° West  Level Estimated
Tue 11:40:00 AM 63.0861 -59.6349 266° West  Level Estimated
Tue 11:41:00 AM 63.0769 -59.9281 266° West  Level Estimated
Tue 11:42:00 AM 63.0671 -60.2210 266° West  Level Estimated
Tue 11:43:00 AM 63.0566 -60.5137 266° West  Level Estimated
Tue 11:44:00 AM 63.0456 -60.8063 265° West  Level Estimated
Tue 11:45:00 AM 63.0340 -61.0986 265° West  Level Estimated
Tue 11:46:00 AM 63.0218 -61.3906 265° West  Level Estimated
Tue 11:47:00 AM 63.0090 -61.6824 265° West  Level Estimated
Tue 11:48:00 AM 62.9956 -61.9739 264° West  Level Estimated
Tue 11:49:00 AM 62.9815 -62.2652 264° West  Level Estimated
Tue 11:50:00 AM 62.9669 -62.5562 264° West  Level Estimated
Tue 11:51:00 AM 62.9517 -62.8469 264° West  Level Estimated
Tue 11:52:00 AM 62.9359 -63.1373 263° West  Level Estimated
Tue 11:52:18 AM 66.5833 -68.5333 262° West 480 552 36,000  Level Edmonton Center
Tue 11:53:00 AM 62.9195 -63.4273 263° West  Level Estimated
Tue 11:53:18 AM 66.5500 -68.9167 258° West 490 564 36,000  Level Edmonton Center
Tue 11:54:00 AM 62.9025 -63.7170 263° West  Level Estimated
Tue 11:54:18 AM 66.5167 -69.2667 257° West 490 564 36,000  Level Edmonton Center
Tue 11:55:00 AM 62.8849 -64.0064 263° West  Level Estimated
Tue 11:55:18 AM 66.5000 -69.5833 263° West 490 564 36,000  Level Edmonton Center
Tue 11:56:00 AM 62.8667 -64.2955 262° West  Level Estimated
Tue 11:56:18 AM 66.4667 -69.8833 255° West 490 564 36,000  Level Edmonton Center
Tue 11:57:00 AM 62.8479 -64.5841 262° West  Level Estimated
Tue 11:57:18 AM 66.4500 -70.2500 264° West 490 564 36,000  Level Edmonton Center
Tue 11:58:18 AM 66.4333 -70.5667 263° West 490 564 36,000  Level Edmonton Center
Tue 11:59:18 AM 66.4167 -70.8833 263° West 480 552 36,000  Level Edmonton Center
Tue 12:00:18 PM 66.3833 -71.2333 257° West 490 564 36,000  Level Edmonton Center
Tue 12:01:18 PM 66.3667 -71.5500 263° West 480 552 36,000  Level Edmonton Center
Tue 12:02:18 PM 66.3333 -71.8667 255° West 490 564 36,000  Level Edmonton Center
Tue 12:03:18 PM 66.3167 -72.1833 263° West 470 541 36,000  Level Edmonton Center
Tue 12:04:18 PM 66.2833 -72.5000 255° West 480 552 36,000  Level Edmonton Center
Tue 12:05:18 PM 66.2500 -72.8500 257° West 480 552 36,000  Level Edmonton Center
Tue 12:06:18 PM 66.2333 -73.1667 263° West 480 552 36,000  Level Edmonton Center
Tue 12:07:18 PM 66.2000 -73.4833 256° West 480 552 36,000  Level Edmonton Center
Tue 12:08:18 PM 66.1667 -73.8000 256° West 480 552 36,000  Level Edmonton Center
Tue 12:09:18 PM 66.1500 -74.1167 263° West 490 564 36,000  Level Edmonton Center
Tue 12:10:18 PM 66.1167 -74.4833 258° West 470 541 36,000  Level Edmonton Center
Tue 12:11:18 PM 66.0833 -74.7500 253° West 490 564 36,000  Level Edmonton Center
Tue 12:13:00 PM 65.9607 -75.2216 241° Southwest  Level FlightAware Approximate
Tue 12:20:00 PM 65.5001 -77.1600 241° Southwest  Level FlightAware Approximate
Tue 12:21:00 PM 65.4323 -77.4312 239° Southwest  Level FlightAware Approximate
Tue 12:22:00 PM 65.3640 -77.7011 239° Southwest  Level FlightAware Approximate
Tue 12:23:00 PM 65.2952 -77.9696 239° Southwest  Level FlightAware Approximate
Tue 12:24:00 PM 65.2260 -78.2366 238° Southwest  Level FlightAware Approximate
Tue 12:25:00 PM 65.1563 -78.5023 238° Southwest  Level FlightAware Approximate
Tue 12:26:00 PM 65.0862 -78.7665 238° Southwest  Level FlightAware Approximate
Tue 12:27:00 PM 65.0155 -79.0294 238° Southwest  Level FlightAware Approximate
Tue 12:28:00 PM 64.9445 -79.2909 237° Southwest  Level FlightAware Approximate
Tue 12:29:00 PM 64.8729 -79.5510 237° Southwest  Level FlightAware Approximate
Tue 12:30:00 PM 64.8009 -79.8097 237° Southwest  Level FlightAware Approximate
Tue 12:31:00 PM 64.7285 -80.0670 237° Southwest  Level FlightAware Approximate
Tue 12:32:00 PM 64.6556 -80.3230 236° Southwest  Level FlightAware Approximate
Tue 12:33:00 PM 64.5823 -80.5775 236° Southwest  Level FlightAware Approximate
Tue 12:34:00 PM 64.5085 -80.8307 236° Southwest  Level FlightAware Approximate
Tue 12:35:00 PM 64.4343 -81.0826 236° Southwest  Level FlightAware Approximate
Tue 12:36:00 PM 64.3597 -81.3330 236° Southwest  Level FlightAware Approximate
Tue 12:37:00 PM 64.2847 -81.5821 235° Southwest  Level FlightAware Approximate
Tue 12:38:00 PM 64.2092 -81.8299 235° Southwest  Level FlightAware Approximate
Tue 12:39:00 PM 64.1333 -82.0763 235° Southwest  Level FlightAware Approximate
Tue 12:40:00 PM 64.0570 -82.3213 235° Southwest  Level FlightAware Approximate
Tue 12:41:00 PM 63.9803 -82.5650 234° Southwest  Level FlightAware Approximate
Tue 12:42:00 PM 63.9032 -82.8074 234° Southwest  Level FlightAware Approximate
Tue 12:43:00 PM 63.8257 -83.0485 234° Southwest  Level FlightAware Approximate
Tue 12:44:00 PM 63.7478 -83.2882 234° Southwest  Level FlightAware Approximate
Tue 12:45:00 PM 63.6695 -83.5266 234° Southwest  Level FlightAware Approximate
Tue 12:46:00 PM 63.5908 -83.7637 233° Southwest  Level FlightAware Approximate
Tue 12:47:00 PM 63.5117 -83.9994 233° Southwest  Level FlightAware Approximate
Tue 12:48:00 PM 63.4322 -84.2339 233° Southwest  Level FlightAware Approximate
Tue 12:49:00 PM 63.3523 -84.4670 233° Southwest  Level FlightAware Approximate
Tue 12:50:00 PM 63.2721 -84.6989 232° Southwest  Level FlightAware Approximate
Tue 12:51:00 PM 63.1915 -84.9295 232° Southwest  Level FlightAware Approximate
Tue 12:52:00 PM 63.1098 -85.1576 231° Southwest  Level FlightAware Approximate
Tue 12:53:00 PM 63.0275 -85.3840 231° Southwest  Level FlightAware Approximate
Tue 12:54:00 PM 62.9449 -85.6091 231° Southwest  Level FlightAware Approximate
Tue 12:55:00 PM 62.8619 -85.8329 231° Southwest  Level FlightAware Approximate
Tue 12:56:00 PM 62.7785 -86.0554 231° Southwest  Level FlightAware Approximate
Tue 12:57:00 PM 62.6948 -86.2767 231° Southwest  Level FlightAware Approximate
Tue 12:58:00 PM 62.6107 -86.4967 230° Southwest  Level FlightAware Approximate
Tue 12:59:00 PM 62.5263 -86.7155 230° Southwest  Level FlightAware Approximate
Tue 01:00:00 PM 62.4648 -86.9639 247° West  Level FlightAware Approximate
Tue 01:01:00 PM 62.4133 -87.2254 247° West  Level FlightAware Approximate
Tue 01:02:00 PM 62.3614 -87.4859 247° West  Level FlightAware Approximate
Tue 01:03:00 PM 62.3089 -87.7455 247° West  Level FlightAware Approximate
Tue 01:04:00 PM 62.2560 -88.0043 246° West  Level FlightAware Approximate
Tue 01:05:00 PM 62.2014 -88.2609 245° Southwest  Level FlightAware Approximate
Tue 01:06:00 PM 62.1462 -88.5165 245° Southwest  Level FlightAware Approximate
Tue 01:07:00 PM 62.0905 -88.7711 245° Southwest  Level FlightAware Approximate
Tue 01:08:00 PM 62.0343 -89.0248 245° Southwest  Level FlightAware Approximate
Tue 01:09:00 PM 61.9777 -89.2776 245° Southwest  Level FlightAware Approximate
Tue 01:10:00 PM 61.9206 -89.5294 244° Southwest  Level FlightAware Approximate
Tue 01:11:00 PM 61.8630 -89.7803 244° Southwest  Level FlightAware Approximate
Tue 01:12:00 PM 61.8050 -90.0303 244° Southwest  Level FlightAware Approximate
Tue 01:13:00 PM 61.7466 -90.2793 244° Southwest  Level FlightAware Approximate
Tue 01:14:00 PM 61.6877 -90.5273 243° Southwest  Level FlightAware Approximate
Tue 01:15:00 PM 61.6283 -90.7744 243° Southwest  Level FlightAware Approximate
Tue 01:16:00 PM 61.5686 -91.0206 243° Southwest  Level FlightAware Approximate
Tue 01:17:00 PM 61.5083 -91.2658 243° Southwest  Level FlightAware Approximate
Tue 01:18:00 PM 61.4477 -91.5100 243° Southwest  Level FlightAware Approximate
Tue 01:19:00 PM 61.3863 -91.7530 242° Southwest  Level FlightAware Approximate
Tue 01:20:00 PM 61.3234 -91.9938 242° Southwest  Level FlightAware Approximate
Tue 01:21:00 PM 61.2601 -92.2337 241° Southwest  Level FlightAware Approximate
Tue 01:22:00 PM 61.1964 -92.4726 241° Southwest  Level FlightAware Approximate
Tue 01:23:00 PM 61.1323 -92.7106 241° Southwest  Level FlightAware Approximate
Tue 01:24:00 PM 61.0677 -92.9476 241° Southwest  Level FlightAware Approximate
Tue 01:25:00 PM 61.0032 -93.1840 241° Southwest  Level FlightAware Approximate
Tue 01:26:00 PM 60.9397 -93.4213 241° Southwest  Level FlightAware Approximate
Tue 01:27:00 PM 60.8758 -93.6575 241° Southwest  Level FlightAware Approximate
Tue 01:28:00 PM 60.8115 -93.8929 241° Southwest  Level FlightAware Approximate
Tue 01:29:00 PM 60.7467 -94.1273 241° Southwest  Level FlightAware Approximate
Tue 01:30:00 PM 60.6816 -94.3607 240° Southwest  Level FlightAware Approximate
Tue 01:31:00 PM 60.6161 -94.5932 240° Southwest  Level FlightAware Approximate
Tue 01:32:00 PM 60.5501 -94.8248 240° Southwest  Level FlightAware Approximate
Tue 01:33:00 PM 60.4832 -95.0547 239° Southwest  Level FlightAware Approximate
Tue 01:34:00 PM 60.4158 -95.2836 239° Southwest  Level FlightAware Approximate
Tue 01:35:00 PM 60.3480 -95.5114 239° Southwest  Level FlightAware Approximate
Tue 01:36:00 PM 60.2798 -95.7384 239° Southwest  Level FlightAware Approximate
Tue 01:37:00 PM 60.2112 -95.9643 239° Southwest  Level FlightAware Approximate
Tue 01:38:00 PM 60.1422 -96.1894 238° Southwest  Level FlightAware Approximate
Tue 01:39:00 PM 60.0728 -96.4134 238° Southwest  Level FlightAware Approximate
Tue 01:40:00 PM 60.0031 -96.6366 238° Southwest  Level FlightAware Approximate
Tue 01:41:00 PM 59.9330 -96.8588 238° Southwest  Level FlightAware Approximate
Tue 01:42:00 PM 59.8625 -97.0800 238° Southwest  Level FlightAware Approximate
Tue 01:42:53 PM 59.7333 -98.2833 237° Southwest 510 587 36,000  Level Winnipeg Center
Tue 01:43:00 PM 59.7916 -97.3003 237° Southwest  Level FlightAware Approximate
Tue 01:43:53 PM 59.6500 -98.5167 235° Southwest 490 564 36,000  Level Winnipeg Center
Tue 01:44:00 PM 59.7204 -97.5197 237° Southwest  Level FlightAware Approximate
Tue 01:44:37 PM 59.5667 -98.6167 211° Southwest 470 541 36,000  Level Edmonton Center
Tue 01:45:00 PM 59.6488 -97.7382 237° Southwest  Level FlightAware Approximate
Tue 01:45:37 PM 59.4833 -98.8000 228° Southwest 470 541 36,000  Level Edmonton Center
Tue 01:46:00 PM 59.5769 -97.9557 237° Southwest  Level FlightAware Approximate
Tue 01:46:37 PM 59.4000 -98.9833 228° Southwest 480 552 36,000  Level Edmonton Center
Tue 01:47:00 PM 59.5046 -98.1723 237° Southwest  Level FlightAware Approximate
Tue 01:47:37 PM 59.2833 -99.2000 224° Southwest 490 564 36,000  Level Edmonton Center
Tue 01:48:00 PM 59.4319 -98.3879 237° Southwest  Level FlightAware Approximate
Tue 01:48:37 PM 59.2000 -99.4167 233° Southwest 490 564 36,000  Level Edmonton Center
Tue 01:49:37 PM 59.1000 -99.6000 223° Southwest 490 564 36,000  Level Edmonton Center
Tue 01:50:37 PM 59.0167 -99.8167 233° Southwest 490 564 36,000  Level Edmonton Center
Tue 01:51:37 PM 58.9333 -99.9833 226° Southwest 490 564 36,000  Level Edmonton Center
Tue 01:52:37 PM 58.8333 -100.2000 228° Southwest 490 564 36,000  Level Edmonton Center
Tue 01:53:37 PM 58.7333 -100.3833 224° Southwest 480 552 36,000  Level Edmonton Center
Tue 01:54:37 PM 58.6333 -100.5500 221° Southwest 490 564 36,000  Level Edmonton Center
Tue 01:55:37 PM 58.5333 -100.7333 224° Southwest 490 564 36,000  Level Edmonton Center
Tue 01:56:37 PM 58.4167 -100.8833 214° Southwest 490 564 36,000  Level Edmonton Center
Tue 01:57:37 PM 58.3000 -101.0500 217° Southwest 500 575 36,000  Level Edmonton Center
Tue 01:58:37 PM 58.1833 -101.2167 217° Southwest 490 564 36,000  Level Edmonton Center
Tue 01:59:37 PM 58.0833 -101.3667 218° Southwest 490 564 36,000  Level Edmonton Center
Tue 02:00:37 PM 57.9833 -101.5333 221° Southwest 500 575 36,000  Level Edmonton Center
Tue 02:01:37 PM 57.8667 -101.6667 211° Southwest 490 564 36,000  Level Edmonton Center
Tue 02:02:37 PM 57.7500 -101.8500 220° Southwest 490 564 36,000  Level Edmonton Center
Tue 02:03:37 PM 57.6500 -102.0167 222° Southwest 500 575 36,000  Level Edmonton Center
Tue 02:04:37 PM 57.5333 -102.1500 212° Southwest 500 575 36,000  Level Edmonton Center
Tue 02:05:37 PM 57.4000 -102.3500 219° Southwest 500 575 36,000  Level Edmonton Center
Tue 02:06:37 PM 57.3000 -102.4833 216° Southwest 500 575 36,000  Level Edmonton Center
Tue 02:07:37 PM 57.1833 -102.6500 218° Southwest 500 575 36,000  Level Edmonton Center
Tue 02:08:37 PM 57.0667 -102.7833 212° Southwest 500 575 36,000  Level Edmonton Center
Tue 02:09:37 PM 56.9500 -102.9333 215° Southwest 500 575 36,000  Level Edmonton Center
Tue 02:10:37 PM 56.8333 -103.1000 218° Southwest 500 575 36,000  Level Edmonton Center
Tue 02:11:37 PM 56.7167 -103.2667 218° Southwest 500 575 36,000  Level Edmonton Center
Tue 02:12:37 PM 56.6167 -103.3833 213° Southwest 500 575 36,000  Level Edmonton Center
Tue 02:13:37 PM 56.5000 -103.5500 218° Southwest 490 564 36,000  Level Edmonton Center
Tue 02:14:37 PM 56.3833 -103.7000 215° Southwest 490 564 36,000  Level Edmonton Center
Tue 02:15:37 PM 56.2667 -103.8667 218° Southwest 500 575 36,000  Level Edmonton Center
Tue 02:16:53 PM 56.1333 -104.0500 217° Southwest 500 575 36,000  Level Winnipeg Center
Tue 02:17:53 PM 56.0333 -104.2167 223° Southwest 500 575 36,000  Level Winnipeg Center
Tue 02:18:53 PM 55.9167 -104.3500 213° Southwest 500 575 36,000  Level Winnipeg Center
Tue 02:20:37 PM 55.7000 -104.5667 209° Southwest 490 564 36,000  Level Edmonton Center
Tue 02:21:37 PM 55.6000 -104.7000 217° Southwest 490 564 36,000  Level Edmonton Center
Tue 02:22:37 PM 55.4833 -104.8500 216° Southwest 490 564 36,000  Level Edmonton Center
Tue 02:23:37 PM 55.3667 -105.0000 216° Southwest 490 564 36,000  Level Edmonton Center
Tue 02:24:37 PM 55.2667 -105.1167 214° Southwest 490 564 36,000  Level Edmonton Center
Tue 02:25:37 PM 55.1333 -105.2333 207° Southwest 480 552 36,000  Level Edmonton Center
Tue 02:26:37 PM 55.0333 -105.4000 224° Southwest 490 564 36,000  Level Edmonton Center
Tue 02:27:37 PM 54.9167 -105.5500 216° Southwest 490 564 36,000  Level Edmonton Center
Tue 02:28:37 PM 54.8167 -105.7000 221° Southwest 480 552 36,000  Level Edmonton Center
Tue 02:29:37 PM 54.7167 -105.8500 221° Southwest 480 552 36,000  Level Edmonton Center
Tue 02:30:37 PM 54.6000 -105.9833 214° Southwest 490 564 36,000  Level Edmonton Center
Tue 02:31:37 PM 54.5000 -106.1333 221° Southwest 490 564 36,000  Level Edmonton Center
Tue 02:32:37 PM 54.3833 -106.2667 214° Southwest 490 564 36,000  Level Edmonton Center
Tue 02:33:53 PM 54.2667 -106.5000 229° Southwest 490 564 36,000  Level Winnipeg Center
Tue 02:34:53 PM 54.1500 -106.6500 217° Southwest 490 564 36,000  Level Winnipeg Center
Tue 02:35:53 PM 54.0500 -106.8000 221° Southwest 490 564 36,000  Level Winnipeg Center
Tue 02:36:53 PM 53.9333 -106.9333 214° Southwest 490 564 36,000  Level Winnipeg Center
Tue 02:37:37 PM 53.8333 -107.0000 201° Southwest 490 564 36,000  Level Edmonton Center
Tue 02:38:37 PM 53.7333 -107.1333 218° Southwest 490 564 36,000  Level Edmonton Center
Tue 02:39:37 PM 53.6333 -107.2667 218° Southwest 490 564 36,000  Level Edmonton Center
Tue 02:40:37 PM 53.5333 -107.4167 222° Southwest 480 552 36,000  Level Edmonton Center
Tue 02:41:37 PM 53.4167 -107.5833 220° Southwest 480 552 36,000  Level Edmonton Center
Tue 02:42:37 PM 53.3167 -107.7167 219° Southwest 480 552 36,000  Level Edmonton Center
Tue 02:43:37 PM 53.2333 -107.8500 224° Southwest 470 541 36,000  Level Edmonton Center
Tue 02:44:37 PM 53.1000 -108.0000 214° Southwest 480 552 36,000  Level Edmonton Center
Tue 02:45:37 PM 53.0167 -108.1333 224° Southwest 480 552 36,000  Level Edmonton Center
Tue 02:46:37 PM 52.9167 -108.3000 225° Southwest 480 552 36,000  Level Edmonton Center
Tue 02:47:37 PM 52.8000 -108.4333 215° Southwest 480 552 36,000  Level Edmonton Center
Tue 02:48:37 PM 52.7000 -108.5833 222° Southwest 490 564 36,000  Level Edmonton Center
Tue 02:49:37 PM 52.6000 -108.7167 219° Southwest 490 564 36,000  Level Edmonton Center
Tue 02:50:37 PM 52.4833 -108.8833 221° Southwest 490 564 36,000  Level Edmonton Center
Tue 02:51:37 PM 52.3833 -109.0333 223° Southwest 490 564 36,000  Level Edmonton Center
Tue 02:52:37 PM 52.2667 -109.1667 215° Southwest 490 564 36,000  Level Edmonton Center
Tue 02:53:37 PM 52.1667 -109.3167 223° Southwest 490 564 36,000  Level Edmonton Center
Tue 02:54:37 PM 52.0667 -109.4500 219° Southwest 490 564 36,000  Level Edmonton Center
Tue 02:55:37 PM 51.9500 -109.6000 218° Southwest 490 564 36,000 350 Level Edmonton Center
Tue 02:56:37 PM 51.8500 -109.7167 216° Southwest 490 564 36,700 1,000 Climbing Edmonton Center
Tue 02:57:37 PM 51.7333 -109.8667 219° Southwest 490 564 38,000 650 Climbing Edmonton Center
Tue 02:58:37 PM 51.6333 -110.0333 226° Southwest 490 564 38,000  Level Edmonton Center
Tue 02:59:37 PM 51.5167 -110.1833 219° Southwest 490 564 38,000  Level Edmonton Center
Tue 03:00:37 PM 51.4333 -110.3000 221° Southwest 480 552 38,000  Level Edmonton Center
Tue 03:01:37 PM 51.3167 -110.4500 219° Southwest 480 552 38,000  Level Edmonton Center
Tue 03:02:37 PM 51.2167 -110.6000 223° Southwest 490 564 38,000  Level Edmonton Center
Tue 03:03:37 PM 51.1167 -110.7500 223° Southwest 490 564 38,000  Level Edmonton Center
Tue 03:04:37 PM 51.0167 -110.9000 223° Southwest 490 564 38,000  Level Edmonton Center
Tue 03:05:37 PM 50.9167 -111.0167 216° Southwest 490 564 38,000  Level Edmonton Center
Tue 03:06:37 PM 50.8167 -111.1833 227° Southwest 490 564 38,000  Level Edmonton Center
Tue 03:07:37 PM 50.7000 -111.3000 212° Southwest 490 564 38,000  Level Edmonton Center
Tue 03:08:37 PM 50.6000 -111.4500 224° Southwest 490 564 38,000  Level Edmonton Center
Tue 03:09:37 PM 50.5000 -111.6000 224° Southwest 490 564 38,000  Level Edmonton Center
Tue 03:10:37 PM 50.3833 -111.7333 216° Southwest 490 564 38,000  Level Edmonton Center
Tue 03:11:37 PM 50.3000 -111.8833 229° Southwest 500 575 38,000  Level Edmonton Center
Tue 03:12:37 PM 50.1833 -112.0333 219° Southwest 500 575 38,000  Level Edmonton Center
Tue 03:13:37 PM 50.0667 -112.1667 216° Southwest 500 575 38,000  Level Edmonton Center
Tue 03:14:37 PM 49.9667 -112.3000 221° Southwest 500 575 38,000  Level Edmonton Center
Tue 03:15:37 PM 49.8667 -112.4500 224° Southwest 500 575 38,000  Level Edmonton Center
Tue 03:16:37 PM 49.7500 -112.5833 216° Southwest 500 575 38,000  Level Edmonton Center
Tue 03:17:37 PM 49.6500 -112.7167 221° Southwest 500 575 38,000  Level Edmonton Center
Tue 03:18:37 PM 49.5500 -112.8667 224° Southwest 490 564 38,000  Level Edmonton Center
Tue 03:19:37 PM 49.4333 -113.0000 217° Southwest 490 564 38,000  Level Edmonton Center
Tue 03:20:37 PM 49.3333 -113.1333 221° Southwest 500 575 38,000  Level Edmonton Center
Tue 03:21:37 PM 49.2167 -113.2667 217° Southwest 500 575 38,000  Level Edmonton Center
Tue 03:22:37 PM 49.1167 -113.4167 225° Southwest 500 575 38,000  Level Edmonton Center
Tue 03:23:37 PM 49.0000 -113.5500 217° Southwest 500 575 38,000  Level Edmonton Center
Tue 03:24:37 PM 48.9000 -113.6833 221° Southwest 500 575 38,000  Level Edmonton Center
Tue 03:25:37 PM 48.7833 -113.8167 217° Southwest 500 575 38,000  Level Edmonton Center
Tue 03:26:37 PM 48.6833 -113.9500 221° Southwest 490 564 38,000  Level Edmonton Center
Tue 03:27:37 PM 48.5667 -114.0833 217° Southwest 500 575 38,000  Level Edmonton Center
Tue 03:28:37 PM 48.4667 -114.2000 218° Southwest 500 575 38,000  Level Edmonton Center
Tue 03:29:44 PM 48.3808 -114.3339 226° Southwest 507 583 38,000  Level Seattle Center
Tue 03:30:54 PM 48.2503 -114.4919 219° Southwest 509 586 38,000  Level Salt Lake Center
Tue 03:31:56 PM 48.1422 -114.6222 219° Southwest 509 586 38,000  Level Salt Lake Center
Tue 03:32:57 PM 48.0336 -114.7514 219° Southwest 509 586 38,000  Level Salt Lake Center
Tue 03:33:59 PM 47.9236 -114.8825 219° Southwest 512 589 38,000  Level Salt Lake Center
Tue 03:34:49 PM 47.8131 -115.0136 219° Southwest 513 590 38,000  Level Seattle Center
Tue 03:35:50 PM 47.7011 -115.1442 218° Southwest 514 592 38,000  Level Seattle Center
Tue 03:36:51 PM 47.5900 -115.2747 218° Southwest 514 592 38,000  Level Seattle Center
Tue 03:37:52 PM 47.4786 -115.4042 218° Southwest 513 590 38,000  Level Seattle Center
Tue 03:38:53 PM 47.3650 -115.5336 218° Southwest 516 594 38,000  Level Seattle Center
Tue 03:39:54 PM 47.2528 -115.6619 218° Southwest 514 592 38,000  Level Seattle Center
Tue 03:40:55 PM 47.1417 -115.7886 218° Southwest 514 592 38,000  Level Seattle Center
Tue 03:41:57 PM 47.0289 -115.9178 218° Southwest 515 593 38,000  Level Seattle Center
Tue 03:42:58 PM 46.9147 -116.0458 217° Southwest 515 593 38,000  Level Seattle Center
Tue 03:43:59 PM 46.7794 -116.1956 217° Southwest 512 589 38,000  Level Seattle Center
Tue 03:45:00 PM 46.6667 -116.3228 218° Southwest 512 589 38,000  Level Seattle Center
Tue 03:46:01 PM 46.5525 -116.4492 217° Southwest 513 590 38,000  Level Seattle Center
Tue 03:47:02 PM 46.4389 -116.5761 218° Southwest 515 593 38,000  Level Seattle Center
Tue 03:48:03 PM 46.3253 -116.6983 217° Southwest 511 588 38,000  Level Seattle Center
Tue 03:49:04 PM 46.2117 -116.8219 217° Southwest 512 589 38,000  Level Seattle Center
Tue 03:50:05 PM 46.0983 -116.9486 218° Southwest 514 592 38,000  Level Seattle Center
Tue 03:51:06 PM 45.9853 -117.0686 216° Southwest 509 586 38,000  Level Seattle Center
Tue 03:52:07 PM 45.8703 -117.1894 216° Southwest 509 586 38,000  Level Seattle Center
Tue 03:52:32 PM 45.8250 -117.2394 218° Southwest 512 589 38,000  Level Seattle Center
Tue 03:53:33 PM 45.7117 -117.3606 217° Southwest 511 588 38,000  Level Seattle Center
Tue 03:55:30 PM 45.4889 -117.5944 216° Southwest 511 588 38,000  Level Salt Lake Center
Tue 03:56:31 PM 45.3756 -117.7147 217° Southwest 511 588 38,000  Level Salt Lake Center
Tue 03:57:37 PM 45.2314 -117.8628 216° Southwest 510 587 38,000  Level Seattle Center
Tue 03:58:38 PM 45.1211 -117.9736 215° Southwest 514 592 38,000  Level Seattle Center
Tue 03:59:39 PM 45.0072 -118.0903 216° Southwest 511 588 38,000  Level Seattle Center
Tue 04:00:40 PM 44.8836 -118.2158 216° Southwest 512 589 38,000  Level Seattle Center
Tue 04:01:41 PM 44.7681 -118.3331 216° Southwest 511 588 38,000  Level Seattle Center
Tue 04:02:42 PM 44.6517 -118.4481 215° Southwest 511 588 38,000  Level Seattle Center
Tue 04:03:42 PM 44.5353 -118.5639 215° Southwest 511 588 38,000  Level Salt Lake Center
Tue 04:04:43 PM 44.4203 -118.6792 216° Southwest 509 586 38,000  Level Salt Lake Center
Tue 04:05:44 PM 44.3058 -118.7917 215° Southwest 504 580 38,000  Level Seattle Center
Tue 04:06:45 PM 44.1911 -118.9047 215° Southwest 505 581 38,000  Level Seattle Center
Tue 04:07:46 PM 44.0789 -119.0136 215° Southwest 494 568 38,000  Level Seattle Center
Tue 04:08:48 PM 43.9644 -119.1253 215° Southwest 501 577 38,000  Level Seattle Center
Tue 04:09:48 PM 43.8500 -119.2342 214° Southwest 500 575 38,000  Level Seattle Center
Tue 04:10:49 PM 43.7361 -119.3439 215° Southwest 498 573 38,000  Level Seattle Center
Tue 04:11:50 PM 43.6219 -119.4536 215° Southwest 500 575 38,000  Level Seattle Center
Tue 04:12:51 PM 43.5064 -119.5642 215° Southwest 507 583 38,000  Level Seattle Center
Tue 04:13:52 PM 43.3700 -119.6939 215° Southwest 500 575 38,000  Level Seattle Center
Tue 04:14:53 PM 43.2639 -119.7947 215° Southwest 498 573 38,000  Level Seattle Center
Tue 04:15:54 PM 43.1483 -119.9014 214° Southwest 500 575 38,000  Level Seattle Center
Tue 04:16:55 PM 43.0350 -120.0083 215° Southwest 497 572 38,000  Level Seattle Center
Tue 04:17:56 PM 42.9203 -120.1142 214° Southwest 498 573 38,000  Level Seattle Center
Tue 04:18:57 PM 42.8036 -120.2225 214° Southwest 504 580 38,000  Level Seattle Center
Tue 04:19:58 PM 42.6894 -120.3267 214° Southwest 499 574 38,000  Level Seattle Center
Tue 04:20:59 PM 42.5761 -120.4322 214° Southwest 495 570 38,000  Level Seattle Center
Tue 04:22:00 PM 42.4400 -120.5550 214° Southwest 491 565 38,000  Level Seattle Center
Tue 04:23:01 PM 42.3167 -120.6403 207° Southwest 494 568 38,000  Level Seattle Center
Tue 04:24:02 PM 42.1964 -120.7303 209° Southwest 493 567 38,000  Level Seattle Center
Tue 04:25:03 PM 42.0786 -120.8189 209° Southwest 487 560 38,000  Level Seattle Center
Tue 04:26:04 PM 41.9594 -120.9081 209° Southwest 488 562 38,000  Level Seattle Center
Tue 04:27:05 PM 41.8400 -120.9961 209° Southwest 488 562 38,000  Level Seattle Center
Tue 04:28:06 PM 41.7208 -121.0836 209° Southwest 485 558 38,000  Level Seattle Center
Tue 04:33:45 PM 41.2813 -121.3999 208° Southwest 477 549 38,000  Level FlightAware ADS-B
Tue 04:35:46 PM 40.8115 -121.7360 208° Southwest 477 549 38,000  Level FlightAware ADS-B
Tue 04:36:17 PM 40.7499 -121.7801 208° Southwest 477 549 38,000  Level FlightAware ADS-B
Tue 04:36:53 PM 40.6805 -121.8294 208° Southwest 477 549 38,000  Level FlightAware ADS-B
Tue 04:37:23 PM 40.6215 -121.8706 208° Southwest 477 549 38,000  Level FlightAware ADS-B
Tue 04:37:53 PM 40.5655 -121.9070 199° South 484 557 38,000  Level FlightAware ADS-B
Tue 04:38:23 PM 40.4970 -121.9326 195° South 487 560 38,000  Level FlightAware ADS-B
Tue 04:38:32 PM 40.5004 -121.9312 194° South 486 559 38,000  Level FlightAware ADS-B (KSAC)
Tue 04:38:53 PM 40.4484 -121.9494 195° South 485 558 38,000  Level FlightAware ADS-B (KSAC)
Tue 04:39:11 PM 40.4098 -121.9640 196° South 484 557 38,000  Level FlightAware ADS-B (KSAC)
Tue 04:39:33 PM 40.3669 -121.9807 196° South 483 556 38,000  Level FlightAware ADS-B (KSAC)
Tue 04:40:05 PM 40.2776 -122.0172 198° South 481 554 38,000  Level FlightAware ADS-B
Tue 04:40:11 PM 40.2982 -122.0084 197° South 482 555 38,000  Level FlightAware ADS-B (KSAC)
Tue 04:40:45 PM 40.1934 -122.0527 198° South 479 551 38,000  Level FlightAware ADS-B
Tue 04:41:20 PM 40.1196 -122.0840 198° South 479 551 38,000  Level FlightAware ADS-B
Tue 04:41:51 PM 40.0541 -122.1113 198° South 479 551 38,000  Level FlightAware ADS-B
Tue 04:42:32 PM 39.9857 -122.1383 196° South 478 550 38,000  Level FlightAware ADS-B (KSAC)
Tue 04:43:34 PM 39.8546 -122.1897 196° South 477 549 38,000  Level FlightAware ADS-B (KSAC)
Tue 04:44:13 PM 39.7703 -122.2228 196° South 479 551 38,000  Level FlightAware ADS-B (KSAC)
Tue 04:45:12 PM 39.6528 -122.2686 196° South 479 551 38,000  Level FlightAware ADS-B (KSAC)
Tue 04:45:53 PM 39.5656 -122.3024 196° South 476 548 38,000  Level FlightAware ADS-B (KSAC)
Tue 04:46:34 PM 39.4830 -122.3343 196° South 473 544 38,000  Level FlightAware ADS-B (KSAC)
Tue 04:47:14 PM 39.3983 -122.3674 196° South 472 543 38,000 -148 Level FlightAware ADS-B (KSAC)
Tue 04:47:55 PM 39.3082 -122.4023 196° South 475 547 37,800 -1,407 Descending FlightAware ADS-B (KSAC)
Tue 04:48:35 PM 39.2247 -122.4341 196° South 480 552 36,100 -3,266 Descending FlightAware ADS-B (KSAC)
Tue 04:49:14 PM 39.1407 -122.4669 196° South 491 565 33,500 -2,760 Descending FlightAware ADS-B (KSAC)
Tue 04:50:15 PM 39.0084 -122.5173 196° South 467 537 31,500 -1,980 Descending FlightAware ADS-B (KSAC)
Tue 04:50:54 PM 38.9309 -122.5468 196° South 457 526 30,200 -2,127 Descending FlightAware ADS-B (KSAC)
Tue 04:51:34 PM 38.8508 -122.5774 196° South 451 519 28,700 -2,700 Descending FlightAware ADS-B (KSAC)
Tue 04:52:14 PM 38.7708 -122.6077 196° South 456 525 26,600 -2,700 Descending FlightAware ADS-B (KSAC)
Tue 04:52:54 PM 38.6892 -122.6382 194° South 444 511 25,100 -2,634 Descending FlightAware ADS-B (KSAC)
Tue 04:53:36 PM 38.6041 -122.6548 183° South 451 519 23,000 -2,925 Descending FlightAware ADS-B (KSAC)
Tue 04:54:14 PM 38.5255 -122.6563 180° South 447 514 21,200 -2,769 Descending FlightAware ADS-B (KSAC)
Tue 04:54:54 PM 38.4433 -122.6569 180° South 442 509 19,400 -2,519 Descending FlightAware ADS-B (KSAC)
Tue 04:55:35 PM 38.3552 -122.6581 180° South 435 501 17,800 -2,444 Descending FlightAware ADS-B (KSAC)
Tue 04:56:15 PM 38.2723 -122.6600 181° South 428 493 16,100 -2,506 Descending FlightAware ADS-B (KSAC)
Tue 04:56:54 PM 38.1956 -122.6618 181° South 419 482 14,500 -2,308 Descending FlightAware ADS-B (KSAC)
Tue 04:57:33 PM 38.1233 -122.6635 180° South 412 474 13,100 -1,976 Descending FlightAware ADS-B (KSAC)
Tue 04:58:16 PM 38.0622 -122.6648 182° South 400 460 11,800 -636 Descending FlightAware ADS-B (KSAC)
Tue 05:01:10 PM 37.7899 -122.5550 139° Southeast 304 350 10,800 -293 Descending FlightAware ADS-B
Tue 05:01:41 PM 37.7573 -122.5200 140° Southeast 290 334 10,800 90 Level FlightAware ADS-B
Tue 05:02:17 PM 37.7216 -122.4820 140° Southeast 278 320 10,900 88 Climbing FlightAware ADS-B
Tue 05:02:49 PM 37.6910 -122.4500 140° Southeast 272 313 10,900  Level FlightAware ADS-B
Tue 05:03:19 PM 37.6618 -122.4190 140° Southeast 274 315 10,900  Level FlightAware ADS-B
Tue 05:03:52 PM 37.6292 -122.3850 140° Southeast 270 311 10,900  Level FlightAware ADS-B
Tue 05:03:58 PM 37.6287 -122.3836 140° Southeast 272 313 10,900 -316 Level FlightAware ADS-B (EPLL / LCJ)
Tue 05:04:11 PM 37.6099 -122.3670 152° Southeast 273 314 10,800 -300 Descending FlightAware ADS-B
Tue 05:04:18 PM 37.6037 -122.3625 156° South 273 314 10,800 -581 Level FlightAware ADS-B (EPLL / LCJ)
Tue 05:04:42 PM 37.5753 -122.3480 157° South 266 306 10,500 -1,024 Descending FlightAware ADS-B
Tue 05:04:59 PM 37.5576 -122.3384 158° South 264 304 10,100 -1,364 Descending FlightAware ADS-B (EPLL / LCJ)
Tue 05:05:04 PM 37.5501 -122.3350 158° South 265 305 10,000 -1,412 Descending FlightAware ADS-B
Tue 05:05:16 PM 37.5365 -122.3280 158° South 265 305 9,700 -1,714 Descending FlightAware ADS-B
Tue 05:05:18 PM 37.5337 -122.3262 159° South 264 304 9,600 -1,385 Descending FlightAware ADS-B (EPLL / LCJ)
Tue 05:05:29 PM 37.5217 -122.3210 158° South 263 303 9,400 -1,304 Descending FlightAware ADS-B
Tue 05:05:41 PM 37.5082 -122.3140 158° South 259 298 9,100 -1,111 Descending FlightAware ADS-B
Tue 05:05:56 PM 37.4907 -122.3050 159° South 252 290 8,900 -938 Descending FlightAware ADS-B
Tue 05:06:13 PM 37.4732 -122.2960 159° South 244 281 8,600 -1,091 Descending FlightAware ADS-B
Tue 05:06:29 PM 37.4565 -122.2880 159° South 236 272 8,300 -1,200 Descending FlightAware ADS-B
Tue 05:06:33 PM 37.4522 -122.2860 158° South 234 269 8,200 -857 Descending FlightAware ADS-B
Tue 05:06:36 PM 37.4492 -122.2840 154° Southeast 232 267 8,200 -1,333 Level FlightAware ADS-B
Tue 05:06:42 PM 37.4443 -122.2810 147° Southeast 229 264 8,000 -1,800 Descending FlightAware ADS-B
Tue 05:06:46 PM 37.4412 -122.2780 137° Southeast 225 259 7,900 -1,500 Descending FlightAware ADS-B
Tue 05:06:50 PM 37.4383 -122.2730 127° Southeast 222 255 7,800 -1,500 Descending FlightAware ADS-B
Tue 05:06:54 PM 37.4361 -122.2700 124° Southeast 220 253 7,700 -1,333 Descending FlightAware ADS-B
Tue 05:06:59 PM 37.4331 -122.2630 120° Southeast 218 251 7,600 -1,500 Descending FlightAware ADS-B
Tue 05:07:14 PM 37.4255 -122.2470 120° Southeast 215 247 7,200 -1,385 Descending FlightAware ADS-B
Tue 05:07:25 PM 37.4200 -122.2350 121° Southeast 214 246 7,000 -923 Descending FlightAware ADS-B
Tue 05:07:40 PM 37.4122 -122.2190 121° Southeast 215 247 6,800 -900 Descending FlightAware ADS-B
Tue 05:07:45 PM 37.4099 -122.2130 118° Southeast 214 246 6,700 -600 Descending FlightAware ADS-B
Tue 05:07:50 PM 37.4082 -122.2080 111° Southeast 212 244 6,700 -750 Level FlightAware ADS-B
Tue 05:07:53 PM 37.4074 -122.2040 105° East 210 242 6,600 -1,500 Descending FlightAware ADS-B
Tue 05:07:58 PM 37.4068 -122.1980 93° East 206 237 6,500 -1,200 Descending FlightAware ADS-B
Tue 05:08:03 PM 37.4073 -122.1920 81° East 204 235 6,400 -1,091 Descending FlightAware ADS-B
Tue 05:08:20 PM 37.4133 -122.1789 46° Northeast 203 234 6,100 -1,000 Descending FlightAware ADS-B (EPLL / LCJ)
Tue 05:08:21 PM 37.4165 -122.1760 81° East 204 235 6,100 -1,500 Level FlightAware ADS-B
Tue 05:08:24 PM 37.4189 -122.1740 32° Northeast 205 236 6,000 -1,000 Descending FlightAware ADS-B
Tue 05:08:27 PM 37.4219 -122.1720 26° Northeast 207 238 6,000 -857 Level FlightAware ADS-B
Tue 05:08:31 PM 37.4255 -122.1700 23° Northeast 207 238 5,900 -3,000 Descending FlightAware ADS-B
Tue 05:08:33 PM 37.4273 -122.1686 22° Northeast 206 237 5,700 -1,286 Descending FlightAware ADS-B (EPLL / LCJ)
Tue 05:08:45 PM 37.4377 -122.1630 23° Northeast 206 237 5,600 -1,043 Descending FlightAware ADS-B
Tue 05:08:56 PM 37.4470 -122.1590 22° Northeast 205 236 5,300 -1,714 Descending FlightAware ADS-B
Tue 05:08:59 PM 37.4504 -122.1570 18° North 206 237 5,200 -2,000 Descending FlightAware ADS-B
Tue 05:09:02 PM 37.4533 -122.1560 12° North 206 237 5,100 -1,500 Descending FlightAware ADS-B
Tue 05:09:07 PM 37.4576 -122.1550 North 206 237 5,000 -750 Descending FlightAware ADS-B
Tue 05:09:10 PM 37.4606 -122.1560 355° North 206 237 5,000 -857 Level FlightAware ADS-B
Tue 05:09:14 PM 37.4645 -122.1560 350° North 204 235 4,900 -1,500 Descending FlightAware ADS-B
Tue 05:09:18 PM 37.4677 -122.1570 347° North 204 235 4,800 -1,500 Descending FlightAware ADS-B
Tue 05:09:22 PM 37.4715 -122.1580 345° North 203 234 4,700 -1,895 Descending FlightAware ADS-B
Tue 05:09:37 PM 37.4853 -122.1640 342° North 205 236 4,200 -1,765 Descending FlightAware ADS-B
Tue 05:09:39 PM 37.4814 -122.1622 342° North 204 235 4,200 -1,636 Level FlightAware ADS-B (EPLL / LCJ)
Tue 05:09:48 PM 37.4954 -122.1680 342° North 204 235 3,900 -1,714 Descending FlightAware ADS-B
Tue 05:10:00 PM 37.5057 -122.1720 342° North 205 236 3,600 -1,636 Descending FlightAware ADS-B
Tue 05:10:10 PM 37.5148 -122.1760 342° North 205 236 3,300 -1,636 Descending FlightAware ADS-B
Tue 05:10:22 PM 37.5255 -122.1800 341° North 203 234 3,000 -1,600 Descending FlightAware ADS-B
Tue 05:10:25 PM 37.5281 -122.1810 339° North 202 232 2,900 -1,000 Descending FlightAware ADS-B
Tue 05:10:28 PM 37.5313 -122.1830 332° Northwest 201 231 2,900 -750 Level FlightAware ADS-B
Tue 05:10:33 PM 37.5347 -122.1860 323° Northwest 199 229 2,800 -750 Descending FlightAware ADS-B
Tue 05:10:36 PM 37.5368 -122.1890 316° Northwest 199 229 2,800  Level FlightAware ADS-B
Tue 05:10:40 PM 37.5391 -122.1910 312° West 198 228 2,800 -1,000 Level FlightAware ADS-B
Tue 05:10:48 PM 37.5436 -122.1980 308° West 187 215 2,600 -1,200 Descending FlightAware ADS-B
Tue 05:10:55 PM 37.5470 -122.2040 303° West 181 208 2,500 -923 Descending FlightAware ADS-B
Tue 05:11:01 PM 37.5496 -122.2110 299° West 174 200 2,400 -1,200 Descending FlightAware ADS-B
Tue 05:11:05 PM 37.5512 -122.2140 298° West 170 196 2,300 -900 Descending FlightAware ADS-B
Tue 05:11:21 PM 37.5568 -122.2280 298° West 159 183 2,100 -800 Descending FlightAware ADS-B
Tue 05:11:35 PM 37.5617 -122.2390 298° West 160 184 1,900 -947 Descending FlightAware ADS-B
Tue 05:11:40 PM 37.5616 -122.2393 298° West 160 184 1,800 -800 Descending FlightAware ADS-B (EPLL / LCJ)
Tue 05:11:50 PM 37.5668 -122.2510 298° West 157 181 1,700 -600 Descending FlightAware ADS-B
Tue 05:12:00 PM 37.5698 -122.2587 298° West 153 176 1,600 -750 Descending FlightAware ADS-B (EPLL / LCJ)
Tue 05:12:06 PM 37.5722 -122.2640 298° West 153 176 1,500 -947 Descending FlightAware ADS-B
Tue 05:12:19 PM 37.5763 -122.2730 298° West 146 168 1,300 -900 Descending FlightAware ADS-B
Tue 05:12:26 PM 37.5787 -122.2800 297° West 147 169 1,200 -545 Descending FlightAware ADS-B
Tue 05:12:30 PM 37.5797 -122.2820 297° West 148 170 1,200 -600 Level FlightAware ADS-B
Tue 05:12:46 PM 37.5847 -122.2940 297° West 147 169 1,000 -706 Descending FlightAware ADS-B
Tue 05:13:04 PM 37.5904 -122.3080 297° West 148 170 800 -769 Descending FlightAware ADS-B
Tue 05:13:25 PM 37.5973 -122.3240 298° West 144 166 500 -727 Descending FlightAware ADS-B
Tue 05:13:37 PM 37.6012 -122.3330 299° West 145 167 400 -720 Descending FlightAware ADS-B
Tue 05:13:50 PM 37.6054 -122.3430 297° West 145 167 200 -923 Descending FlightAware ADS-B

Login

Don't have an account? Register now (free) for customized features, flight alerts, and more!